createdAt,value
2023-03-24T00:00:27.239Z,13.50
2023-03-24T00:02:54.502Z,13.60
2023-03-24T00:05:23.115Z,13.50
2023-03-24T00:07:54.483Z,13.60
2023-03-24T00:10:23.489Z,13.60
2023-03-24T00:12:51.712Z,13.50
2023-03-24T00:15:21.777Z,13.60
2023-03-24T00:17:52.432Z,13.60
2023-03-24T00:20:22.334Z,13.60
2023-03-24T00:22:57.003Z,13.60
2023-03-24T00:25:29.824Z,13.60
2023-03-24T00:27:58.110Z,13.50
2023-03-24T00:30:26.439Z,13.50
2023-03-24T00:32:53.530Z,13.50
2023-03-24T00:35:20.771Z,13.50
2023-03-24T00:37:47.769Z,13.40
2023-03-24T00:40:18.225Z,13.50
2023-03-24T00:42:46.649Z,13.50
2023-03-24T00:45:18.267Z,13.50
2023-03-24T00:47:45.465Z,13.60
2023-03-24T00:50:16.029Z,13.60
2023-03-24T00:52:44.330Z,13.60
2023-03-24T00:55:16.102Z,13.70
2023-03-24T00:57:50.733Z,13.70
2023-03-24T01:00:26.226Z,13.60
2023-03-24T01:02:58.920Z,13.60
2023-03-24T01:05:29.033Z,13.60
2023-03-24T01:08:03.596Z,13.60
2023-03-24T01:10:34.397Z,13.70
2023-03-24T01:13:02.326Z,13.70
2023-03-24T01:15:33.757Z,13.70
2023-03-24T01:18:04.267Z,13.60
2023-03-24T01:20:33.740Z,13.70
2023-03-24T01:23:02.187Z,13.70
2023-03-24T01:25:30.616Z,13.70
2023-03-24T01:27:57.669Z,13.70
2023-03-24T01:30:27.072Z,13.70
2023-03-24T01:32:54.333Z,13.70
2023-03-24T01:35:23.233Z,13.70
2023-03-24T01:37:50.370Z,13.70
2023-03-24T01:40:20.362Z,13.70
2023-03-24T01:42:47.868Z,13.60
2023-03-24T01:45:39.794Z,13.70
2023-03-24T01:48:12.098Z,13.70
2023-03-24T01:50:42.883Z,13.60
2023-03-24T01:53:10.249Z,13.70
2023-03-24T01:55:38.995Z,13.70
2023-03-24T01:58:07.790Z,13.70
2023-03-24T02:00:35.150Z,13.80
2023-03-24T02:03:09.553Z,13.70
2023-03-24T02:05:38.874Z,13.70
2023-03-24T02:08:13.081Z,13.70
2023-03-24T02:10:40.215Z,13.80
2023-03-24T02:13:07.696Z,13.80
2023-03-24T02:16:03.462Z,13.80
2023-03-24T02:18:47.519Z,13.90
2023-03-24T02:21:37.103Z,13.90
2023-03-24T02:24:19.192Z,13.80
2023-03-24T02:26:54.329Z,13.80
2023-03-24T02:29:21.164Z,13.80
2023-03-24T02:32:14.220Z,13.90
2023-03-24T02:35:12.120Z,13.90
2023-03-24T02:38:09.584Z,13.90
2023-03-24T02:40:44.135Z,13.90
2023-03-24T02:43:21.201Z,13.90
2023-03-24T02:46:00.158Z,13.90
2023-03-24T02:49:07.742Z,13.90
2023-03-24T02:51:58.396Z,13.90
2023-03-24T02:54:37.291Z,13.90
2023-03-24T02:57:15.392Z,13.90
2023-03-24T02:59:45.119Z,14.00
2023-03-24T03:02:18.153Z,14.10
2023-03-24T03:04:50.210Z,14.10
2023-03-24T03:07:22.110Z,14.10
2023-03-24T03:10:02.417Z,14.10
2023-03-24T03:12:34.417Z,14.10
2023-03-24T03:15:13.931Z,14.10
2023-03-24T03:17:59.169Z,14.10
2023-03-24T03:20:31.250Z,14.20
2023-03-24T03:23:17.921Z,14.20
2023-03-24T03:25:51.061Z,14.20
2023-03-24T03:28:25.842Z,14.20
2023-03-24T03:31:01.561Z,14.10
2023-03-24T03:33:40.740Z,14.20
2023-03-24T03:36:29.723Z,14.20
2023-03-24T03:39:27.909Z,14.20
2023-03-24T03:41:55.874Z,14.20
2023-03-24T03:44:22.979Z,14.30
2023-03-24T03:46:49.913Z,14.20
2023-03-24T03:49:19.002Z,14.20
2023-03-24T03:51:46.244Z,14.10
2023-03-24T03:54:16.394Z,14.10
2023-03-24T03:56:44.288Z,14.10
2023-03-24T03:59:27.991Z,14.10
2023-03-24T04:01:55.992Z,14.10
2023-03-24T04:04:26.389Z,14.10
2023-03-24T04:07:24.381Z,14.20
2023-03-24T04:10:12.355Z,14.10
2023-03-24T04:12:54.291Z,14.10
2023-03-24T04:15:42.603Z,14.10
2023-03-24T04:18:27.933Z,14.10
2023-03-24T04:21:35.530Z,14.10
2023-03-24T04:24:08.977Z,14.10
2023-03-24T04:27:15.028Z,14.10
2023-03-24T04:30:16.621Z,14.30
2023-03-24T04:33:40.681Z,14.20
2023-03-24T04:36:32.402Z,14.20
2023-03-24T04:39:01.836Z,14.20
2023-03-24T04:41:31.103Z,14.20
2023-03-24T04:43:59.226Z,14.10
2023-03-24T04:46:27.388Z,14.30
2023-03-24T04:48:55.292Z,14.30
2023-03-24T04:51:22.410Z,14.40
2023-03-24T04:53:49.383Z,14.30
2023-03-24T04:56:35.245Z,14.30
2023-03-24T04:59:02.353Z,14.40
2023-03-24T05:01:30.495Z,14.40
2023-03-24T05:03:58.800Z,14.30
2023-03-24T05:06:27.202Z,14.30
2023-03-24T05:08:54.642Z,14.40
2023-03-24T05:11:21.863Z,14.40
2023-03-24T05:13:48.888Z,14.40
2023-03-24T05:16:15.989Z,14.30
2023-03-24T05:18:44.717Z,14.30
2023-03-24T05:21:12.304Z,14.30
2023-03-24T05:23:39.703Z,14.40
2023-03-24T05:26:07.293Z,14.40
2023-03-24T05:28:34.321Z,14.40
2023-03-24T05:31:01.811Z,14.40
2023-03-24T05:33:28.976Z,13.90
2023-03-24T05:35:56.517Z,13.60
2023-03-24T05:38:23.480Z,13.60
2023-03-24T05:40:50.661Z,13.30
2023-03-24T05:43:17.762Z,13.30
2023-03-24T05:45:44.980Z,13.30
2023-03-24T05:48:12.899Z,13.30
2023-03-24T05:50:39.942Z,13.30
2023-03-24T05:53:07.344Z,13.20
2023-03-24T05:55:35.207Z,13.30
2023-03-24T05:58:02.354Z,13.30
2023-03-24T06:00:31.030Z,13.20
2023-03-24T06:02:59.245Z,13.10
2023-03-24T06:05:26.736Z,13.10
2023-03-24T06:07:59.009Z,13.10
2023-03-24T06:10:26.903Z,13.00
2023-03-24T06:12:55.469Z,13.10
2023-03-24T06:15:24.756Z,13.20
2023-03-24T06:17:54.884Z,13.10
2023-03-24T06:20:21.862Z,13.20
2023-03-24T06:22:50.023Z,13.20
2023-03-24T06:25:20.652Z,13.10
2023-03-24T06:27:47.733Z,13.00
2023-03-24T06:30:16.877Z,12.90
2023-03-24T06:32:47.245Z,12.80
2023-03-24T06:35:16.030Z,12.80
2023-03-24T06:37:43.059Z,12.90
2023-03-24T06:40:13.040Z,12.80
2023-03-24T06:42:39.951Z,12.80
2023-03-24T06:45:07.620Z,12.80
2023-03-24T06:47:34.907Z,12.70
2023-03-24T06:50:01.799Z,12.80
2023-03-24T06:52:28.676Z,12.70
2023-03-24T06:54:55.820Z,12.60
2023-03-24T06:57:22.645Z,12.60
2023-03-24T06:59:49.477Z,12.60
2023-03-24T07:02:17.184Z,12.50
2023-03-24T07:04:44.440Z,12.60
2023-03-24T07:07:52.794Z,12.50
2023-03-24T07:10:00.215Z,12.70
2023-03-24T07:12:28.711Z,12.60
2023-03-24T07:14:56.140Z,12.50
2023-03-24T07:17:24.296Z,12.40
2023-03-24T07:19:52.016Z,12.30
2023-03-24T07:22:19.369Z,12.30
2023-03-24T07:24:46.229Z,12.20
2023-03-24T07:27:13.097Z,12.20
2023-03-24T07:29:40.203Z,12.10
2023-03-24T07:32:08.800Z,12.10
2023-03-24T07:34:39.284Z,12.10
2023-03-24T07:37:07.207Z,12.00
2023-03-24T07:39:34.308Z,12.00
2023-03-24T07:42:01.529Z,11.90
2023-03-24T07:44:28.397Z,11.90
2023-03-24T07:46:55.368Z,12.00
2023-03-24T07:49:22.480Z,12.00
2023-03-24T07:51:49.243Z,12.10
2023-03-24T07:54:16.638Z,11.90
2023-03-24T07:56:43.542Z,11.80
2023-03-24T07:59:10.400Z,11.80
2023-03-24T08:01:37.951Z,11.90
2023-03-24T08:04:06.945Z,12.00
2023-03-24T08:06:34.939Z,12.00
2023-03-24T08:09:01.898Z,12.00
2023-03-24T08:11:28.974Z,12.00
2023-03-24T08:13:56.169Z,12.00
2023-03-24T08:16:23.116Z,11.80
2023-03-24T08:18:51.095Z,11.90
2023-03-24T08:21:18.118Z,11.90
2023-03-24T08:23:44.935Z,12.00
2023-03-24T08:26:12.461Z,12.10
2023-03-24T08:28:39.583Z,12.30
2023-03-24T08:31:06.783Z,12.40
2023-03-24T08:33:34.335Z,12.50
2023-03-24T08:36:04.466Z,12.50
2023-03-24T08:38:32.153Z,12.70
2023-03-24T08:41:02.436Z,12.80
2023-03-24T08:43:30.881Z,13.00
2023-03-24T08:45:59.092Z,12.90
2023-03-24T08:48:28.958Z,12.70
2023-03-24T08:50:56.622Z,12.60
2023-03-24T08:53:23.517Z,12.50
2023-03-24T08:55:50.643Z,12.50
2023-03-24T08:58:20.348Z,12.60
2023-03-24T09:00:49.010Z,12.90
2023-03-24T09:03:22.783Z,12.80
2023-03-24T09:05:50.964Z,13.10
2023-03-24T09:08:19.049Z,13.20
2023-03-24T09:10:49.894Z,13.10
2023-03-24T09:13:17.543Z,13.10
2023-03-24T09:15:52.911Z,13.20
2023-03-24T09:18:21.368Z,13.40
2023-03-24T09:20:49.598Z,13.40
2023-03-24T09:23:17.310Z,13.40
2023-03-24T09:25:44.102Z,13.50
2023-03-24T09:28:11.278Z,13.50
2023-03-24T09:30:38.165Z,13.60
2023-03-24T09:33:05.081Z,13.60
2023-03-24T09:35:33.832Z,13.40
2023-03-24T09:38:00.770Z,13.50
2023-03-24T09:40:36.090Z,13.80
2023-03-24T09:43:19.937Z,13.80
2023-03-24T09:45:57.112Z,14.10
2023-03-24T09:48:39.922Z,14.10
2023-03-24T09:51:18.983Z,14.20
2023-03-24T09:54:16.741Z,14.10
2023-03-24T09:56:47.279Z,14.20
2023-03-24T09:59:21.140Z,14.10
2023-03-24T10:01:48.623Z,14.00
2023-03-24T10:04:24.865Z,14.20
2023-03-24T10:07:08.626Z,14.30
2023-03-24T10:09:36.874Z,14.40
2023-03-24T10:12:34.477Z,14.90
2023-03-24T10:15:30.926Z,14.90
2023-03-24T10:18:23.551Z,15.20
2023-03-24T10:21:00.305Z,15.50
2023-03-24T10:23:34.458Z,15.30
2023-03-24T10:26:36.290Z,15.20
2023-03-24T10:29:22.133Z,15.30
2023-03-24T10:32:00.553Z,15.20
2023-03-24T10:34:33.235Z,15.30
2023-03-24T10:37:03.153Z,15.10
2023-03-24T10:39:43.643Z,15.20
2023-03-24T10:42:24.584Z,15.10
2023-03-24T10:44:52.876Z,15.20
2023-03-24T10:47:25.719Z,15.50
2023-03-24T10:49:53.696Z,15.40
2023-03-24T10:52:20.585Z,15.60
2023-03-24T10:54:58.930Z,15.80
2023-03-24T10:57:27.576Z,15.80
2023-03-24T10:59:59.811Z,15.90
2023-03-24T11:02:32.094Z,15.90
2023-03-24T11:05:19.591Z,16.10
2023-03-24T11:07:48.961Z,16.00
2023-03-24T11:10:35.260Z,15.90
2023-03-24T11:13:05.116Z,15.70
2023-03-24T11:15:39.332Z,15.60
2023-03-24T11:18:24.250Z,15.70
2023-03-24T11:21:02.654Z,15.40
2023-03-24T11:23:34.582Z,15.40
2023-03-24T11:26:04.530Z,15.40
2023-03-24T11:28:40.154Z,15.70
2023-03-24T11:31:09.904Z,16.10
2023-03-24T11:33:54.821Z,16.30
2023-03-24T11:36:32.458Z,16.60
2023-03-24T11:39:11.927Z,17.10
2023-03-24T11:41:44.058Z,17.20
2023-03-24T11:44:25.069Z,17.10
2023-03-24T11:46:58.083Z,16.60
2023-03-24T11:49:30.703Z,16.30
2023-03-24T11:51:58.179Z,16.20
2023-03-24T11:54:33.123Z,16.20
2023-03-24T11:57:06.093Z,16.30
2023-03-24T11:59:49.643Z,16.30
2023-03-24T12:02:47.512Z,16.70
2023-03-24T12:05:31.422Z,16.80
2023-03-24T12:08:18.544Z,16.60
2023-03-24T12:11:08.392Z,16.80
2023-03-24T12:13:45.936Z,16.50
2023-03-24T12:16:33.206Z,16.60
2023-03-24T12:19:28.387Z,17.10
2023-03-24T12:22:26.012Z,17.40
2023-03-24T12:25:08.843Z,17.10
2023-03-24T12:28:09.497Z,16.80
2023-03-24T12:30:54.477Z,16.50
2023-03-24T12:33:27.284Z,16.40
2023-03-24T12:36:31.916Z,16.30
2023-03-24T12:39:09.886Z,16.00
2023-03-24T12:41:47.541Z,16.40
2023-03-24T12:44:17.627Z,16.80
2023-03-24T12:47:09.998Z,17.00
2023-03-24T12:50:18.096Z,17.30
2023-03-24T12:53:04.815Z,17.60
2023-03-24T12:56:03.432Z,17.30
2023-03-24T12:58:43.057Z,16.50
2023-03-24T13:01:13.523Z,16.60
2023-03-24T13:03:47.153Z,17.00
2023-03-24T13:06:35.132Z,17.00
2023-03-24T13:09:10.907Z,17.00
2023-03-24T13:11:47.872Z,16.60
2023-03-24T13:14:22.649Z,16.60
2023-03-24T13:16:50.826Z,16.50
2023-03-24T13:19:23.059Z,16.30
2023-03-24T13:21:52.653Z,16.10
2023-03-24T13:24:20.458Z,16.00
2023-03-24T13:27:11.902Z,15.90
2023-03-24T13:29:48.999Z,15.90
2023-03-24T13:32:24.105Z,16.00
2023-03-24T13:35:26.381Z,16.00
2023-03-24T13:38:04.719Z,16.00
2023-03-24T13:40:37.547Z,16.00
2023-03-24T13:43:11.355Z,16.00
2023-03-24T13:45:52.799Z,15.80
2023-03-24T13:49:01.093Z,16.00
2023-03-24T13:51:35.578Z,16.70
2023-03-24T13:54:06.040Z,16.10
2023-03-24T13:56:36.124Z,16.40
2023-03-24T13:59:03.502Z,16.50
2023-03-24T14:01:38.932Z,16.00
2023-03-24T14:04:17.845Z,16.20
2023-03-24T14:06:59.329Z,15.90
2023-03-24T14:09:33.132Z,16.30
2023-03-24T14:12:08.426Z,16.50
2023-03-24T14:14:56.528Z,16.30
2023-03-24T14:17:24.444Z,16.80
2023-03-24T14:19:57.306Z,17.10
2023-03-24T14:22:27.233Z,16.70
2023-03-24T14:25:16.893Z,16.40
2023-03-24T14:28:17.855Z,16.40
2023-03-24T14:31:13.484Z,16.30
2023-03-24T14:33:42.458Z,16.20
2023-03-24T14:36:12.476Z,16.10
2023-03-24T14:38:44.833Z,15.90
2023-03-24T14:41:17.144Z,15.90
2023-03-24T14:43:53.245Z,15.90
2023-03-24T14:46:20.311Z,15.90
2023-03-24T14:49:04.093Z,16.60
2023-03-24T14:51:39.898Z,17.50
2023-03-24T14:54:25.005Z,17.10
2023-03-24T14:56:54.925Z,16.40
2023-03-24T14:59:29.642Z,16.20
2023-03-24T15:02:06.129Z,16.00
2023-03-24T15:04:33.788Z,15.80
2023-03-24T15:07:04.989Z,15.20
2023-03-24T15:09:32.263Z,15.30
2023-03-24T15:12:00.870Z,14.80
2023-03-24T15:14:28.402Z,14.60
2023-03-24T15:17:19.942Z,15.20
2023-03-24T15:19:53.883Z,15.70
2023-03-24T15:22:21.456Z,17.70
2023-03-24T15:24:51.166Z,18.70
2023-03-24T15:27:20.541Z,19.60
2023-03-24T15:29:54.493Z,18.90
2023-03-24T15:32:25.169Z,20.30
2023-03-24T15:35:02.570Z,19.90
2023-03-24T15:37:43.063Z,19.40
2023-03-24T15:40:31.149Z,19.60
2023-03-24T15:43:00.703Z,20.30
2023-03-24T15:45:29.884Z,20.40
2023-03-24T15:47:58.421Z,19.70
2023-03-24T15:50:38.200Z,20.40
2023-03-24T15:53:25.169Z,18.60
2023-03-24T15:56:17.666Z,18.70
2023-03-24T15:58:52.363Z,18.00
2023-03-24T16:01:31.700Z,17.90
2023-03-24T16:04:01.720Z,17.80
2023-03-24T16:06:34.127Z,17.90
2023-03-24T16:09:13.688Z,18.00
2023-03-24T16:11:41.873Z,16.80
2023-03-24T16:14:25.648Z,16.40
2023-03-24T16:17:02.225Z,16.50
2023-03-24T16:19:29.199Z,16.90
2023-03-24T16:21:56.510Z,17.30
2023-03-24T16:24:23.559Z,17.10
2023-03-24T16:26:50.423Z,16.80
2023-03-24T16:29:20.080Z,16.50
2023-03-24T16:31:49.440Z,16.20
2023-03-24T16:34:21.425Z,16.00
2023-03-24T16:36:50.414Z,15.90
2023-03-24T16:39:19.792Z,15.70
2023-03-24T16:41:47.092Z,15.50
2023-03-24T16:44:14.383Z,15.50
2023-03-24T16:46:42.462Z,15.40
2023-03-24T16:49:13.927Z,15.30
2023-03-24T16:51:41.586Z,15.00
2023-03-24T16:54:09.563Z,14.40
2023-03-24T16:56:37.870Z,14.30
2023-03-24T16:59:05.306Z,14.10
2023-03-24T17:01:34.010Z,13.90
2023-03-24T17:04:04.460Z,13.60
2023-03-24T17:06:33.062Z,13.10
2023-03-24T17:08:59.934Z,11.60
2023-03-24T17:11:30.444Z,10.50
2023-03-24T17:14:02.140Z,10.20
2023-03-24T17:16:29.739Z,10.30
2023-03-24T17:18:56.790Z,10.30
2023-03-24T17:21:24.683Z,10.30
2023-03-24T17:23:54.999Z,10.30
2023-03-24T17:26:23.527Z,10.40
2023-03-24T17:28:50.982Z,10.30
2023-03-24T17:31:18.049Z,10.50
2023-03-24T17:33:44.892Z,10.30
2023-03-24T17:36:16.636Z,10.30
2023-03-24T17:38:44.955Z,10.20
2023-03-24T17:41:11.675Z,10.20
2023-03-24T17:43:38.496Z,10.20
2023-03-24T17:46:05.467Z,10.10
2023-03-24T17:48:33.063Z,10.10
2023-03-24T17:50:59.929Z,10.00
2023-03-24T17:53:27.793Z,9.90
2023-03-24T17:55:57.777Z,9.70
2023-03-24T17:58:27.211Z,9.60
2023-03-24T18:00:54.447Z,9.60
2023-03-24T18:03:22.096Z,9.50
2023-03-24T18:05:50.063Z,9.50
2023-03-24T18:08:17.094Z,9.40
2023-03-24T18:10:43.944Z,9.50
2023-03-24T18:13:11.848Z,9.40
2023-03-24T18:15:42.224Z,9.30
2023-03-24T18:18:09.285Z,9.30
2023-03-24T18:20:36.736Z,9.20
2023-03-24T18:23:04.588Z,9.30
2023-03-24T18:25:32.359Z,9.20
2023-03-24T18:27:59.296Z,9.30
2023-03-24T18:30:26.295Z,9.30
2023-03-24T18:32:53.453Z,9.30
2023-03-24T18:35:20.424Z,9.30
2023-03-24T18:37:47.209Z,9.20
2023-03-24T18:40:15.828Z,9.20
2023-03-24T18:42:45.302Z,9.20
2023-03-24T18:45:17.651Z,9.20
2023-03-24T18:47:46.067Z,9.20
2023-03-24T18:50:13.860Z,9.20
2023-03-24T18:52:41.068Z,9.30
2023-03-24T18:55:09.070Z,9.30
2023-03-24T18:57:36.055Z,9.40
2023-03-24T19:00:06.202Z,9.40
2023-03-24T19:02:33.459Z,9.50
2023-03-24T19:05:02.496Z,9.50
2023-03-24T19:07:29.423Z,9.50
2023-03-24T19:09:56.668Z,9.60
2023-03-24T19:12:23.648Z,9.60
2023-03-24T19:14:50.825Z,9.60
2023-03-24T19:17:17.662Z,9.60
2023-03-24T19:19:44.747Z,9.70
2023-03-24T19:22:11.739Z,9.90
2023-03-24T19:24:38.632Z,9.90
2023-03-24T19:27:05.862Z,10.00
2023-03-24T19:29:32.743Z,10.00
2023-03-24T19:31:59.889Z,10.00
2023-03-24T19:34:26.807Z,10.10
2023-03-24T19:36:56.973Z,10.10
2023-03-24T19:39:26.565Z,10.10
2023-03-24T19:41:55.075Z,10.10
2023-03-24T19:44:22.598Z,10.20
2023-03-24T19:46:49.890Z,10.20
2023-03-24T19:49:17.114Z,10.30
2023-03-24T19:51:44.143Z,10.30
2023-03-24T19:54:13.724Z,10.30
2023-03-24T19:56:41.099Z,10.40
2023-03-24T19:59:07.930Z,10.40
2023-03-24T20:01:35.949Z,10.50
2023-03-24T20:04:02.946Z,10.70
2023-03-24T20:06:30.318Z,10.70
2023-03-24T20:08:57.448Z,10.80
2023-03-24T20:11:24.383Z,10.80
2023-03-24T20:13:51.319Z,10.80
2023-03-24T20:16:18.322Z,10.80
2023-03-24T20:18:45.266Z,10.90
2023-03-24T20:21:18.235Z,10.90
2023-03-24T20:23:45.002Z,10.90
2023-03-24T20:26:12.382Z,11.00
2023-03-24T20:28:39.541Z,10.90
2023-03-24T20:31:07.353Z,10.90
2023-03-24T20:33:34.375Z,10.90
2023-03-24T20:36:02.051Z,10.90
2023-03-24T20:38:29.575Z,10.90
2023-03-24T20:41:07.096Z,10.80
2023-03-24T20:43:38.973Z,10.80
2023-03-24T20:46:08.759Z,10.80
2023-03-24T20:48:38.229Z,10.80
2023-03-24T20:51:05.809Z,10.70
2023-03-24T20:53:35.800Z,10.80
2023-03-24T20:56:07.143Z,10.80
2023-03-24T20:58:38.332Z,10.80
2023-03-24T21:01:08.375Z,10.70
2023-03-24T21:03:35.978Z,10.70
2023-03-24T21:06:03.649Z,10.70
2023-03-24T21:08:30.714Z,10.70
2023-03-24T21:10:59.237Z,10.60
2023-03-24T21:13:37.454Z,10.60
2023-03-24T21:16:08.340Z,10.60
2023-03-24T21:18:37.240Z,10.60
2023-03-24T21:21:05.561Z,10.60
2023-03-24T21:23:34.323Z,10.50
2023-03-24T21:26:02.650Z,10.50
2023-03-24T21:28:31.013Z,10.50
2023-03-24T21:30:59.124Z,10.40
2023-03-24T21:33:26.730Z,10.40
2023-03-24T21:35:56.596Z,10.40
2023-03-24T21:38:24.142Z,10.40
2023-03-24T21:40:59.063Z,10.30
2023-03-24T21:43:27.272Z,10.30
2023-03-24T21:45:54.572Z,10.10
2023-03-24T21:48:22.094Z,10.00
2023-03-24T21:50:56.368Z,9.90
2023-03-24T21:53:26.201Z,10.00
2023-03-24T21:56:04.966Z,9.90
2023-03-24T21:58:32.707Z,9.90
2023-03-24T22:01:00.517Z,10.00
2023-03-24T22:03:28.031Z,10.00
2023-03-24T22:05:57.488Z,10.00
2023-03-24T22:08:26.917Z,10.00
2023-03-24T22:10:59.409Z,10.00
2023-03-24T22:13:28.117Z,10.00
2023-03-24T22:15:56.753Z,9.90
2023-03-24T22:18:25.631Z,10.00
2023-03-24T22:20:54.736Z,10.00
2023-03-24T22:23:22.901Z,10.00
2023-03-24T22:25:53.235Z,10.00
2023-03-24T22:28:20.643Z,10.00
2023-03-24T22:30:47.777Z,10.10
2023-03-24T22:33:15.053Z,10.10
2023-03-24T22:35:42.326Z,10.00
2023-03-24T22:38:17.338Z,10.00
2023-03-24T22:40:45.771Z,10.00
2023-03-24T22:43:13.938Z,10.10
2023-03-24T22:45:40.752Z,10.10
2023-03-24T22:48:10.002Z,10.10
2023-03-24T22:50:40.636Z,10.10
2023-03-24T22:53:07.958Z,10.10
2023-03-24T22:55:34.898Z,10.10
2023-03-24T22:58:04.091Z,10.00
2023-03-24T23:00:31.717Z,10.00
2023-03-24T23:02:58.692Z,10.10
2023-03-24T23:05:26.185Z,10.10
2023-03-24T23:07:53.018Z,10.10
2023-03-24T23:10:19.943Z,10.10
2023-03-24T23:12:47.116Z,10.10
2023-03-24T23:15:17.825Z,10.00
2023-03-24T23:17:45.775Z,10.00
2023-03-24T23:20:14.908Z,10.00
2023-03-24T23:22:42.473Z,10.00
2023-03-24T23:25:09.739Z,10.00
2023-03-24T23:27:38.067Z,10.10
2023-03-24T23:30:07.933Z,10.00
2023-03-24T23:32:36.782Z,10.00
2023-03-24T23:35:05.641Z,10.00
2023-03-24T23:37:33.644Z,10.00
2023-03-24T23:40:06.578Z,10.00
2023-03-24T23:42:33.988Z,9.80
2023-03-24T23:45:00.902Z,9.80
2023-03-24T23:47:29.773Z,9.70
2023-03-24T23:49:59.127Z,9.70
2023-03-24T23:52:27.377Z,9.70
2023-03-24T23:54:54.317Z,9.60
2023-03-24T23:57:22.550Z,9.60
2023-03-24T23:59:49.610Z,9.60
